createdAt,value
2019-02-18T00:02:06.447Z,70.84
2019-02-18T00:05:09.736Z,71.78
2019-02-18T00:08:12.957Z,71.67
2019-02-18T00:11:16.120Z,72.06
2019-02-18T00:14:19.327Z,72.02
2019-02-18T00:17:22.516Z,72.48
2019-02-18T00:20:25.701Z,72.95
2019-02-18T00:23:28.884Z,72.80
2019-02-18T00:26:32.086Z,73.19
2019-02-18T00:29:35.403Z,72.07
2019-02-18T00:32:38.579Z,73.29
2019-02-18T00:35:41.792Z,73.14
2019-02-18T00:38:45.043Z,73.35
2019-02-18T00:41:49.342Z,73.17
2019-02-18T00:44:51.251Z,72.64
2019-02-18T00:47:54.448Z,73.05
2019-02-18T00:50:57.659Z,73.18
2019-02-18T00:54:00.831Z,71.79
2019-02-18T00:57:03.959Z,73.84
2019-02-18T01:00:07.854Z,73.90
2019-02-18T01:03:11.124Z,74.07
2019-02-18T01:06:14.228Z,74.48
2019-02-18T01:09:17.425Z,74.58
2019-02-18T01:12:20.519Z,75.00
2019-02-18T01:15:23.611Z,75.00
2019-02-18T01:18:26.706Z,74.71
2019-02-18T01:21:29.903Z,74.89
2019-02-18T01:24:33.101Z,74.94
2019-02-18T01:27:36.207Z,74.63
2019-02-18T01:30:39.392Z,75.09
2019-02-18T01:33:42.564Z,75.17
2019-02-18T01:36:45.754Z,75.08
2019-02-18T01:39:48.889Z,75.12
2019-02-18T01:42:52.087Z,75.53
2019-02-18T01:45:55.258Z,75.32
2019-02-18T01:48:58.536Z,75.54
2019-02-18T01:52:01.626Z,75.80
2019-02-18T01:55:05.203Z,75.85
2019-02-18T01:58:08.327Z,76.09
2019-02-18T02:01:11.520Z,75.85
2019-02-18T02:04:14.695Z,75.93
2019-02-18T02:07:17.815Z,75.44
2019-02-18T02:10:21.035Z,75.84
2019-02-18T02:13:26.950Z,76.08
2019-02-18T02:16:30.048Z,76.14
2019-02-18T02:19:33.249Z,76.35
2019-02-18T02:22:36.468Z,76.30
2019-02-18T02:25:39.636Z,76.48
2019-02-18T02:28:42.849Z,75.39
2019-02-18T02:31:46.051Z,75.48
2019-02-18T02:34:49.222Z,75.38
2019-02-18T02:37:52.435Z,75.64
2019-02-18T02:40:55.619Z,74.63
2019-02-18T02:43:58.824Z,74.72
2019-02-18T02:47:02.021Z,74.82
2019-02-18T02:50:05.421Z,75.71
2019-02-18T02:53:08.615Z,75.26
2019-02-18T02:56:11.890Z,74.94
2019-02-18T02:59:14.979Z,75.61
2019-02-18T03:02:18.175Z,75.53
2019-02-18T03:05:21.375Z,76.49
2019-02-18T03:08:24.575Z,76.69
2019-02-18T03:11:27.763Z,76.87
2019-02-18T03:14:30.985Z,76.28
2019-02-18T03:17:34.147Z,76.67
2019-02-18T03:20:37.379Z,76.69
2019-02-18T03:23:40.547Z,76.80
2019-02-18T03:26:43.630Z,77.21
2019-02-18T03:30:55.122Z,76.54
2019-02-18T03:34:02.555Z,75.58
2019-02-18T03:37:05.703Z,76.50
2019-02-18T03:40:08.818Z,75.61
2019-02-18T03:43:12.099Z,75.58
2019-02-18T03:46:15.299Z,76.20
2019-02-18T03:49:18.770Z,76.88
2019-02-18T03:52:21.977Z,77.10
2019-02-18T03:55:25.091Z,77.24
2019-02-18T03:58:28.295Z,77.23
2019-02-18T04:01:31.486Z,76.89
2019-02-18T04:04:34.800Z,76.93
2019-02-18T04:07:38.089Z,77.42
2019-02-18T04:10:41.263Z,77.97
2019-02-18T04:13:44.446Z,78.26
2019-02-18T04:16:47.543Z,77.60
2019-02-18T04:19:50.740Z,78.23
2019-02-18T04:22:54.160Z,78.20
2019-02-18T04:25:57.303Z,77.82
2019-02-18T04:29:00.450Z,78.55
2019-02-18T04:32:03.641Z,78.35
2019-02-18T04:35:06.885Z,78.82
2019-02-18T04:38:10.003Z,79.71
2019-02-18T04:41:13.097Z,79.47
2019-02-18T04:44:16.309Z,78.83
2019-02-18T04:47:19.510Z,78.85
2019-02-18T04:50:22.683Z,78.74
2019-02-18T04:53:25.883Z,79.61
2019-02-18T04:56:29.080Z,79.33
2019-02-18T04:59:32.276Z,79.53
2019-02-18T05:02:35.465Z,79.43
2019-02-18T05:05:38.774Z,79.47
2019-02-18T05:08:41.947Z,80.38
2019-02-18T05:11:45.034Z,79.80
2019-02-18T05:14:48.238Z,80.29
2019-02-18T05:17:51.346Z,80.48
2019-02-18T05:20:54.645Z,81.28
2019-02-18T05:23:57.920Z,80.08
2019-02-18T05:27:01.133Z,80.45
2019-02-18T05:30:04.549Z,80.15
2019-02-18T05:33:07.867Z,81.00
2019-02-18T05:36:11.010Z,79.87
2019-02-18T05:39:18.141Z,80.14
2019-02-18T05:42:17.403Z,80.63
2019-02-18T05:45:20.591Z,80.28
2019-02-18T05:48:23.904Z,80.93
2019-02-18T05:51:28.822Z,80.91
2019-02-18T05:54:30.282Z,79.90
2019-02-18T05:57:33.567Z,80.51
2019-02-18T06:00:36.760Z,80.67
2019-02-18T06:03:39.870Z,81.43
2019-02-18T06:06:43.169Z,81.12
2019-02-18T06:09:46.467Z,81.78
2019-02-18T06:12:49.667Z,80.78
2019-02-18T06:15:52.898Z,81.81
2019-02-18T06:18:56.046Z,82.14
2019-02-18T06:21:59.352Z,82.03
2019-02-18T06:25:02.565Z,81.54
2019-02-18T06:28:06.334Z,81.37
2019-02-18T06:31:09.546Z,81.82
2019-02-18T06:34:12.741Z,81.46
2019-02-18T06:37:15.955Z,81.24
2019-02-18T06:40:19.132Z,81.06
2019-02-18T06:43:22.231Z,81.69
2019-02-18T06:46:29.876Z,81.83
2019-02-18T06:49:33.883Z,81.57
2019-02-18T06:52:37.215Z,80.83
2019-02-18T06:55:40.435Z,80.64
2019-02-18T06:59:03.975Z,79.90
2019-02-18T07:02:12.547Z,79.80
2019-02-18T07:05:21.831Z,79.81
2019-02-18T07:08:30.296Z,79.39
2019-02-18T07:11:38.836Z,79.74
2019-02-18T07:14:41.979Z,79.91
2019-02-18T07:17:45.167Z,80.25
2019-02-18T07:20:48.384Z,79.24
2019-02-18T07:23:51.553Z,79.03
2019-02-18T07:26:54.744Z,79.28
2019-02-18T07:29:57.850Z,79.18
2019-02-18T07:33:01.035Z,78.84
2019-02-18T07:36:04.225Z,78.81
2019-02-18T07:39:07.708Z,78.04
2019-02-18T07:42:10.832Z,78.07
2019-02-18T07:45:14.031Z,77.59
2019-02-18T07:48:17.319Z,77.22
2019-02-18T07:51:20.626Z,76.62
2019-02-18T07:54:23.803Z,76.11
2019-02-18T07:57:27.012Z,75.60
2019-02-18T08:00:30.215Z,74.69
2019-02-18T08:03:33.409Z,74.50
2019-02-18T08:06:36.595Z,74.01
2019-02-18T08:09:39.782Z,73.21
2019-02-18T08:12:43.087Z,72.96
2019-02-18T08:15:46.286Z,72.55
2019-02-18T08:18:49.492Z,71.82
2019-02-18T08:21:52.685Z,71.67
2019-02-18T08:24:55.886Z,70.86
2019-02-18T08:27:59.153Z,70.74
2019-02-18T08:31:02.345Z,70.01
2019-02-18T08:34:05.555Z,69.64
2019-02-18T08:37:09.341Z,69.06
2019-02-18T08:40:21.697Z,69.12
2019-02-18T08:43:15.733Z,68.78
2019-02-18T08:46:18.842Z,67.99
2019-02-18T08:49:22.137Z,67.71
2019-02-18T08:52:25.351Z,66.88
2019-02-18T08:55:28.557Z,66.27
2019-02-18T08:58:31.808Z,66.14
2019-02-18T09:01:34.919Z,64.98
2019-02-18T09:04:38.005Z,64.39
2019-02-18T09:07:41.229Z,64.35
2019-02-18T09:10:44.356Z,63.81
2019-02-18T09:13:47.504Z,64.02
2019-02-18T09:16:50.668Z,63.81
2019-02-18T09:19:53.862Z,61.63
2019-02-18T09:23:04.401Z,61.32
2019-02-18T09:26:07.511Z,61.23
2019-02-18T09:29:10.821Z,60.83
2019-02-18T09:32:13.921Z,60.58
2019-02-18T09:35:17.014Z,59.81
2019-02-18T09:38:24.949Z,59.33
2019-02-18T09:41:23.305Z,58.55
2019-02-18T09:44:26.503Z,57.86
2019-02-18T09:47:29.587Z,57.36
2019-02-18T09:50:32.783Z,57.76
2019-02-18T09:53:35.980Z,57.06
2019-02-18T09:56:39.171Z,56.42
2019-02-18T09:59:42.359Z,57.16
2019-02-18T10:02:45.555Z,56.12
2019-02-18T10:05:48.744Z,55.29
2019-02-18T10:08:51.988Z,54.75
2019-02-18T10:11:55.176Z,54.10
2019-02-18T10:14:58.431Z,53.52
2019-02-18T10:18:01.631Z,52.81
2019-02-18T10:21:04.973Z,52.99
2019-02-18T10:24:08.146Z,52.62
2019-02-18T10:27:11.318Z,52.33
2019-02-18T10:30:14.669Z,51.57
2019-02-18T10:33:17.814Z,49.91
2019-02-18T10:36:20.996Z,49.78
2019-02-18T10:39:24.115Z,48.99
2019-02-18T10:42:27.279Z,48.89
2019-02-18T10:45:30.384Z,48.15
2019-02-18T10:48:33.697Z,48.40
2019-02-18T10:51:36.897Z,48.63
2019-02-18T10:54:40.989Z,48.46
2019-02-18T10:57:44.071Z,48.68
2019-02-18T11:00:47.367Z,47.95
2019-02-18T11:03:50.580Z,47.63
2019-02-18T11:06:53.763Z,47.51
2019-02-18T11:09:56.851Z,47.01
2019-02-18T11:13:01.063Z,46.15
2019-02-18T11:16:04.168Z,46.01
2019-02-18T11:19:07.363Z,46.48
2019-02-18T11:22:10.551Z,46.00
2019-02-18T11:25:13.852Z,45.68
2019-02-18T11:28:17.046Z,45.24
2019-02-18T11:31:20.235Z,43.72
2019-02-18T11:34:23.431Z,43.98
2019-02-18T11:37:26.619Z,44.29
2019-02-18T11:40:32.068Z,44.64
2019-02-18T11:43:32.962Z,42.33
2019-02-18T11:46:36.131Z,41.54
2019-02-18T11:49:39.307Z,40.94
2019-02-18T11:52:42.399Z,42.44
2019-02-18T11:55:45.496Z,41.58
2019-02-18T11:58:48.691Z,42.03
2019-02-18T12:01:51.895Z,41.27
2019-02-18T12:04:55.098Z,40.59
2019-02-18T12:07:58.275Z,41.23
2019-02-18T12:11:01.475Z,38.59
2019-02-18T12:14:04.784Z,40.86
2019-02-18T12:17:07.972Z,38.25
2019-02-18T12:20:11.976Z,38.67
2019-02-18T12:23:15.170Z,38.84
2019-02-18T12:26:18.363Z,38.22
2019-02-18T12:29:26.156Z,37.28
2019-02-18T12:32:24.839Z,38.27
2019-02-18T12:35:31.661Z,37.74
2019-02-18T12:38:31.248Z,37.05
2019-02-18T12:41:34.320Z,37.35
2019-02-18T12:44:37.515Z,35.40
2019-02-18T12:47:40.640Z,35.44
2019-02-18T12:50:43.835Z,35.50
2019-02-18T12:53:47.124Z,34.63
2019-02-18T12:56:50.319Z,34.78
2019-02-18T12:59:53.736Z,33.88
2019-02-18T13:02:56.694Z,33.52
2019-02-18T13:05:59.903Z,35.04
2019-02-18T13:09:03.490Z,33.53
2019-02-18T13:12:06.697Z,33.99
2019-02-18T13:15:11.107Z,34.06
2019-02-18T13:18:14.314Z,34.13
2019-02-18T13:21:17.508Z,34.49
2019-02-18T13:24:20.686Z,34.19
2019-02-18T13:27:23.784Z,33.49
2019-02-18T13:30:26.882Z,33.65
2019-02-18T13:33:30.067Z,34.40
2019-02-18T13:36:33.267Z,33.94
2019-02-18T13:39:36.471Z,33.51
2019-02-18T13:42:39.659Z,34.49
2019-02-18T13:45:42.862Z,34.41
2019-02-18T13:48:46.075Z,34.01
2019-02-18T13:51:56.369Z,35.09
2019-02-18T13:54:52.554Z,34.82
2019-02-18T13:57:55.735Z,34.88
2019-02-18T14:00:58.927Z,34.54
2019-02-18T14:04:02.018Z,32.98
2019-02-18T14:07:05.229Z,33.25
2019-02-18T14:10:08.418Z,33.74
2019-02-18T14:13:11.602Z,33.39
2019-02-18T14:16:14.677Z,32.67
2019-02-18T14:19:17.802Z,33.44
2019-02-18T14:22:21.005Z,33.00
2019-02-18T14:25:24.184Z,32.81
2019-02-18T14:28:27.387Z,32.68
2019-02-18T14:31:30.571Z,31.80
2019-02-18T14:34:33.779Z,32.15
2019-02-18T14:37:36.955Z,32.33
2019-02-18T14:40:40.203Z,31.69
2019-02-18T14:43:43.351Z,31.23
2019-02-18T14:46:46.618Z,31.81
2019-02-18T14:49:49.830Z,31.30
2019-02-18T14:52:52.958Z,32.46
2019-02-18T14:55:56.144Z,32.77
2019-02-18T14:58:59.307Z,32.37
2019-02-18T15:02:02.512Z,33.12
2019-02-18T15:05:05.816Z,32.41
2019-02-18T15:08:08.898Z,33.12
2019-02-18T15:11:12.011Z,33.27
2019-02-18T15:14:15.172Z,34.22
2019-02-18T15:17:18.275Z,34.49
2019-02-18T15:20:21.390Z,34.90
2019-02-18T15:23:24.585Z,34.55
2019-02-18T15:26:27.775Z,34.99
2019-02-18T15:29:30.956Z,35.73
2019-02-18T15:32:36.603Z,35.78
2019-02-18T15:35:39.903Z,35.45
2019-02-18T15:38:43.107Z,36.39
2019-02-18T15:41:46.187Z,35.56
2019-02-18T15:44:49.386Z,35.89
2019-02-18T15:47:52.586Z,37.46
2019-02-18T15:50:55.795Z,36.76
2019-02-18T15:53:58.971Z,37.74
2019-02-18T15:57:02.067Z,38.41
2019-02-18T16:00:07.215Z,38.20
2019-02-18T16:03:10.403Z,38.11
2019-02-18T16:06:13.599Z,37.88
2019-02-18T16:09:16.779Z,38.62
2019-02-18T16:12:19.904Z,39.32
2019-02-18T16:15:23.090Z,39.81
2019-02-18T16:18:26.292Z,40.03
2019-02-18T16:21:29.466Z,40.21
2019-02-18T16:24:32.651Z,40.68
2019-02-18T16:27:35.754Z,41.36
2019-02-18T16:30:38.950Z,41.99
2019-02-18T16:33:42.235Z,43.62
2019-02-18T16:36:45.326Z,44.59
2019-02-18T16:39:48.537Z,46.41
2019-02-18T16:42:59.030Z,46.53
2019-02-18T16:45:54.824Z,47.40
2019-02-18T16:48:57.927Z,48.04
2019-02-18T16:52:01.121Z,48.54
2019-02-18T16:55:04.518Z,49.22
2019-02-18T16:58:07.697Z,50.93
2019-02-18T17:01:10.902Z,50.87
2019-02-18T17:04:13.992Z,49.99
2019-02-18T17:07:17.182Z,51.30
2019-02-18T17:10:20.366Z,53.06
2019-02-18T17:13:23.467Z,53.38
2019-02-18T17:16:26.659Z,53.27
2019-02-18T17:19:29.866Z,53.36
2019-02-18T17:22:33.152Z,54.61
2019-02-18T17:25:36.478Z,55.50
2019-02-18T17:28:39.819Z,55.75
2019-02-18T17:31:42.946Z,56.43
2019-02-18T17:34:46.138Z,56.30
2019-02-18T17:37:49.353Z,56.70
2019-02-18T17:40:52.523Z,56.98
2019-02-18T17:43:55.660Z,56.25
2019-02-18T17:46:58.839Z,56.58
2019-02-18T17:50:02.015Z,57.86
2019-02-18T17:53:05.316Z,58.29
2019-02-18T17:56:08.550Z,58.95
2019-02-18T17:59:11.711Z,58.54
2019-02-18T18:02:14.883Z,59.02
2019-02-18T18:05:17.983Z,59.27
2019-02-18T18:08:21.229Z,59.71
2019-02-18T18:11:24.475Z,60.78
2019-02-18T18:14:27.757Z,61.57
2019-02-18T18:17:30.864Z,61.58
2019-02-18T18:20:34.045Z,61.68
2019-02-18T18:23:37.147Z,61.88
2019-02-18T18:26:40.256Z,62.69
2019-02-18T18:29:43.526Z,63.20
2019-02-18T18:32:46.749Z,63.16
2019-02-18T18:35:49.976Z,62.80
2019-02-18T18:38:53.152Z,62.89
2019-02-18T18:41:56.231Z,62.70
2019-02-18T18:44:59.411Z,63.03
2019-02-18T18:48:02.611Z,61.77
2019-02-18T18:51:05.907Z,62.79
2019-02-18T18:54:09.093Z,62.61
2019-02-18T18:57:12.212Z,62.69
2019-02-18T19:00:17.448Z,63.11
2019-02-18T19:03:20.631Z,64.11
2019-02-18T19:06:23.719Z,64.16
2019-02-18T19:09:26.919Z,64.08
2019-02-18T19:12:30.141Z,64.16
2019-02-18T19:15:33.313Z,64.92
2019-02-18T19:18:36.395Z,65.44
2019-02-18T19:21:39.582Z,65.70
2019-02-18T19:24:42.823Z,65.53
2019-02-18T19:27:45.979Z,65.40
2019-02-18T19:30:49.208Z,65.27
2019-02-18T19:33:52.362Z,64.92
2019-02-18T19:36:55.588Z,65.16
2019-02-18T19:39:58.778Z,65.71
2019-02-18T19:43:01.867Z,66.55
2019-02-18T19:46:05.071Z,65.18
2019-02-18T19:49:08.248Z,65.65
2019-02-18T19:52:11.456Z,65.47
2019-02-18T19:55:14.639Z,65.64
2019-02-18T19:58:17.730Z,65.71
2019-02-18T20:01:20.928Z,66.29
2019-02-18T20:04:24.103Z,66.98
2019-02-18T20:07:27.303Z,67.61
2019-02-18T20:10:30.507Z,67.94
2019-02-18T20:13:33.687Z,67.83
2019-02-18T20:16:36.889Z,67.82
2019-02-18T20:19:40.143Z,67.83
2019-02-18T20:22:43.288Z,67.52
2019-02-18T20:25:46.474Z,68.06
2019-02-18T20:28:49.715Z,68.20
2019-02-18T20:31:52.854Z,69.22
2019-02-18T20:34:56.035Z,70.00
2019-02-18T20:37:59.802Z,70.28
2019-02-18T20:41:02.941Z,70.39
2019-02-18T20:44:07.674Z,70.67
2019-02-18T20:47:10.562Z,69.05
2019-02-18T20:50:13.788Z,70.03
2019-02-18T20:53:17.149Z,70.20
2019-02-18T20:56:20.261Z,70.65
2019-02-18T20:59:23.448Z,70.73
2019-02-18T21:02:26.742Z,70.90
2019-02-18T21:05:29.855Z,70.60
2019-02-18T21:08:33.031Z,70.97
2019-02-18T21:11:36.683Z,70.53
2019-02-18T21:14:39.823Z,70.16
2019-02-18T21:17:42.944Z,69.70
2019-02-18T21:20:46.139Z,70.78
2019-02-18T21:23:49.318Z,70.08
2019-02-18T21:26:52.507Z,70.49
2019-02-18T21:29:55.703Z,70.30
2019-02-18T21:32:58.791Z,70.85
2019-02-18T21:36:01.899Z,71.91
2019-02-18T21:39:06.867Z,72.07
2019-02-18T21:42:10.137Z,72.76
2019-02-18T21:45:13.371Z,72.80
2019-02-18T21:48:16.611Z,73.24
2019-02-18T21:51:19.973Z,73.09
2019-02-18T21:54:23.231Z,73.23
2019-02-18T21:57:26.582Z,73.78
2019-02-18T22:00:29.800Z,73.90
2019-02-18T22:03:33.060Z,74.78
2019-02-18T22:06:36.258Z,74.73
2019-02-18T22:09:39.378Z,74.37
2019-02-18T22:12:42.591Z,74.49
2019-02-18T22:15:45.815Z,74.45
2019-02-18T22:18:49.010Z,74.31
2019-02-18T22:21:52.883Z,74.90
2019-02-18T22:24:55.999Z,75.76
2019-02-18T22:27:59.166Z,75.80
2019-02-18T22:31:02.357Z,76.31
2019-02-18T22:34:05.478Z,76.73
2019-02-18T22:37:08.656Z,76.88
2019-02-18T22:40:11.951Z,76.78
2019-02-18T22:43:15.127Z,76.28
2019-02-18T22:46:18.223Z,76.02
2019-02-18T22:49:21.420Z,76.32
2019-02-18T22:52:24.637Z,76.75
2019-02-18T22:55:27.871Z,77.49
2019-02-18T22:58:31.051Z,77.76
2019-02-18T23:01:34.167Z,77.64
2019-02-18T23:04:37.380Z,77.61
2019-02-18T23:07:40.595Z,77.67
2019-02-18T23:10:43.827Z,77.95
2019-02-18T23:13:47.077Z,77.69
2019-02-18T23:16:50.239Z,78.01
2019-02-18T23:19:54.292Z,78.50
2019-02-18T23:22:57.791Z,78.59
2019-02-18T23:26:00.887Z,77.74
2019-02-18T23:29:04.091Z,77.63
2019-02-18T23:32:07.325Z,77.19
2019-02-18T23:35:10.466Z,77.88
2019-02-18T23:38:13.555Z,78.53
2019-02-18T23:41:16.766Z,78.19
2019-02-18T23:44:20.063Z,78.49
2019-02-18T23:47:23.143Z,79.32
2019-02-18T23:50:26.431Z,79.28
2019-02-18T23:53:29.602Z,78.37
2019-02-18T23:56:32.719Z,77.93
2019-02-18T23:59:35.925Z,78.33
